Killdeer, North Dakota
Current Conditions -  °F | °C
As of 9:56 AM on Thursday 27 Nov 2014 (Local Time) from KDIK Reporting Station
Overcast Overcast  
Wind Chill:   Ceiling: 3400
Heat Index: 18°   Visibility: 10mi
Dew Point: 14°   Wind: 21mph
Humidity: 84%   Direction: 150°SSE
Pressure: 30.03"   Gusts: 26mph
Location:  47.37°N, 102.75°W
Report Text: KDIK 271656Z AUTO 15018G23KT 10SM SCT024 OVC034 M08/M10 A3003 RMK AO2 SNE35 SLP216 P0000 T10781100
Loading
Personal Weather Stations






























Interactive Weather Map New forecast layout! Learn more

10-Day Weather Forecast

Advertisements
Track Severe Weather on mobile